Time;durP1;ratioP1;P1;durP2;ratioP2;P2;SDS_P1;SDS_P2;PMS_P1;PMS_P2;Temp;Humidity;BMP_temperature;BMP_pressure;BME280_temperature;BME280_humidity;BME280_pressure;Samples;Min_cycle;Max_cycle;Signal;HPM_P1;HPM_P2
2023/09/11 00:02:01;;;;;;;17.02;15.38;;;;;;;21.32;85.01;101528.69;6180964;28;20225;-67
2023/09/11 00:05:22;;;;;;;16.55;14.85;;;;;;;21.38;84.64;101519.72;6178857;28;20237;-68
2023/09/11 00:08:43;;;;;;;17.75;15.50;;;;;;;21.35;84.78;101518.22;6172546;28;20504;-69
2023/09/11 00:12:05;;;;;;;18.00;15.75;;;;;;;21.13;85.54;101516.41;6179589;28;20276;-67
2023/09/11 00:15:27;;;;;;;16.83;14.45;;;;;;;21.32;85.53;101514.97;6179189;28;20317;-67
2023/09/11 00:18:48;;;;;;;17.85;15.13;;;;;;;21.15;85.20;101508.00;6173608;28;20327;-66
2023/09/11 00:22:09;;;;;;;16.95;15.25;;;;;;;21.13;85.30;101504.59;6176579;28;20245;-69
2023/09/11 00:25:30;;;;;;;18.75;15.38;;;;;;;21.14;85.92;101503.53;6181021;28;20234;-67
2023/09/11 00:28:51;;;;;;;17.10;15.40;;;;;;;21.15;85.85;101492.38;6185587;28;20233;-68
2023/09/11 00:32:13;;;;;;;14.50;13.10;;;;;;;21.10;86.09;101499.47;6181796;28;20230;-67
2023/09/11 00:35:34;;;;;;;17.17;15.57;;;;;;;21.05;86.22;101496.47;6196197;28;20659;-67
2023/09/11 00:38:54;;;;;;;16.42;14.77;;;;;;;20.89;86.71;101493.84;6177558;28;20230;-68
2023/09/11 00:42:15;;;;;;;14.43;13.00;;;;;;;20.95;87.11;101488.47;6179989;28;20242;-68
2023/09/11 00:45:37;;;;;;;17.38;15.68;;;;;;;21.08;86.45;101485.97;6179338;28;20234;-68
2023/09/11 00:49:00;;;;;;;16.90;15.25;;;;;;;21.09;85.85;101487.66;6176339;28;20230;-68
2023/09/11 00:52:21;;;;;;;17.50;15.70;;;;;;;21.09;85.75;101487.66;6189912;28;20537;-68
2023/09/11 00:55:44;;;;;;;16.02;14.35;;;;;;;21.01;85.69;101476.75;6183838;28;20221;-67
2023/09/11 00:59:05;;;;;;;15.70;14.05;;;;;;;20.98;85.64;101477.16;6180115;28;20230;-66
2023/09/11 01:02:26;;;;;;;19.13;17.08;;;;;;;20.86;85.67;101469.59;6181685;28;20234;-68
2023/09/11 01:05:50;;;;;;;18.23;16.52;;;;;;;20.69;86.42;101460.69;6181490;28;20233;-68
2023/09/11 01:09:11;;;;;;;18.30;15.93;;;;;;;20.80;86.39;101462.13;6191146;28;20524;-67
2023/09/11 01:12:33;;;;;;;17.33;15.52;;;;;;;20.71;86.48;101448.47;6177741;28;20229;-66
2023/09/11 01:16:01;;;;;;;16.42;14.73;;;;;;;20.62;87.20;101451.50;6180534;28;20766;-68
2023/09/11 01:19:45;;;;;;;16.48;14.75;;;;;;;20.68;87.06;101451.59;6182594;28;20643;-68
2023/09/11 01:23:28;;;;;;;16.20;14.55;;;;;;;20.73;86.84;101444.72;6176787;28;20533;-68
2023/09/11 01:27:09;;;;;;;16.73;15.07;;;;;;;20.65;87.22;101441.00;6178972;28;20238;-67
2023/09/11 01:30:33;;;;;;;19.05;17.00;;;;;;;20.59;87.25;101429.94;6173212;28;20233;-67
2023/09/11 01:33:54;;;;;;;19.58;14.52;;;;;;;20.55;87.52;101436.84;6189424;28;20226;-67
2023/09/11 01:37:15;;;;;;;15.60;14.05;;;;;;;20.58;87.51;101434.59;6178968;28;20587;-68
2023/09/11 01:40:38;;;;;;;17.35;15.38;;;;;;;20.63;87.24;101420.34;6175976;28;20234;-68
2023/09/11 01:44:07;;;;;;;18.75;16.45;;;;;;;20.48;87.62;101433.16;6178571;28;20361;-67
2023/09/11 01:47:31;;;;;;;14.77;12.90;;;;;;;20.69;87.08;101442.31;6179842;28;20221;-68
2023/09/11 01:50:52;;;;;;;20.75;16.67;;;;;;;20.60;86.80;101432.50;6190808;28;20237;-67
2023/09/11 01:54:15;;;;;;;17.17;15.10;;;;;;;20.53;86.96;101441.66;6182259;28;20248;-68
2023/09/11 01:57:36;;;;;;;16.10;14.50;;;;;;;20.42;87.10;101444.88;6177793;28;20226;-68
2023/09/11 02:00:57;;;;;;;18.02;15.18;;;;;;;20.45;87.22;101445.34;6172060;28;20227;-68
2023/09/11 02:04:20;;;;;;;17.20;15.40;;;;;;;20.28;87.30;101451.13;6179654;28;20324;-68
2023/09/11 02:07:41;;;;;;;16.13;14.55;;;;;;;20.12;88.14;101449.38;6177691;28;20552;-68
2023/09/11 02:11:02;;;;;;;17.17;15.32;;;;;;;19.99;88.58;101446.41;6177744;28;20225;-67
2023/09/11 02:14:23;;;;;;;16.95;15.23;;;;;;;20.00;89.05;101445.38;6180636;28;20230;-67
2023/09/11 02:17:44;;;;;;;17.77;16.13;;;;;;;20.06;88.79;101439.16;6176453;28;20711;-68
2023/09/11 02:21:06;;;;;;;18.45;16.60;;;;;;;19.98;89.08;101441.97;6178467;28;20274;-67
2023/09/11 02:24:27;;;;;;;16.70;15.00;;;;;;;19.97;89.35;101445.72;6190023;28;20627;-68
2023/09/11 02:27:48;;;;;;;17.50;15.80;;;;;;;20.06;88.71;101441.91;6176564;28;20360;-67
2023/09/11 02:31:09;;;;;;;17.85;16.02;;;;;;;20.00;89.04;101437.16;6180497;28;20655;-68
2023/09/11 02:34:30;;;;;;;19.13;17.00;;;;;;;19.81;89.81;101435.78;6179103;28;20538;-68
2023/09/11 02:37:52;;;;;;;17.63;15.85;;;;;;;19.94;90.37;101438.72;6180789;28;20237;-67
2023/09/11 02:41:13;;;;;;;18.75;16.75;;;;;;;20.01;89.96;101440.72;6181988;28;20233;-68
2023/09/11 02:44:34;;;;;;;18.30;16.27;;;;;;;19.99;89.69;101434.59;6179669;28;20821;-67
2023/09/11 02:47:54;;;;;;;15.27;13.77;;;;;;;19.86;89.82;101427.00;6178860;28;20234;-67
2023/09/11 02:51:17;;;;;;;18.00;16.08;;;;;;;19.92;90.10;101443.53;6179656;28;20271;-67
2023/09/11 02:54:39;;;;;;;20.63;18.48;;;;;;;19.88;89.88;101430.41;6190501;28;20237;-66
2023/09/11 02:57:59;;;;;;;17.30;15.50;;;;;;;19.72;89.73;101425.91;6175664;28;20257;-68
2023/09/11 03:01:20;;;;;;;18.50;16.27;;;;;;;19.66;90.44;101420.31;6174544;28;20249;-68
2023/09/11 03:04:41;;;;;;;19.55;17.08;;;;;;;19.77;90.31;101428.97;6174857;28;20320;-68
2023/09/11 03:08:03;;;;;;;19.52;16.63;;;;;;;19.73;90.45;101424.88;6175066;28;20230;-67
2023/09/11 03:11:25;;;;;;;19.05;16.58;;;;;;;19.70;90.69;101417.03;6177291;28;20233;-67
2023/09/11 03:14:46;;;;;;;19.15;16.75;;;;;;;19.62;91.40;101413.50;6189764;28;20221;-68
2023/09/11 03:18:07;;;;;;;18.58;16.63;;;;;;;19.71;91.26;101418.72;6177852;28;20222;-67
2023/09/11 03:21:28;;;;;;;18.00;16.08;;;;;;;19.77;90.82;101415.28;6178075;28;20251;-67
2023/09/11 03:24:49;;;;;;;19.55;17.25;;;;;;;19.53;91.40;101412.69;6175014;28;20246;-68
2023/09/11 03:28:11;;;;;;;28.55;23.17;;;;;;;19.62;91.78;101413.50;6179422;28;20340;-66
2023/09/11 03:31:32;;;;;;;21.75;19.42;;;;;;;19.58;91.35;101403.97;6187292;28;21410;-68
2023/09/11 03:34:54;;;;;;;22.40;19.90;;;;;;;19.59;92.14;101402.91;6190816;28;20316;-67
2023/09/11 03:38:16;;;;;;;27.15;24.27;;;;;;;19.54;91.49;101405.34;6180298;28;20604;-67
2023/09/11 03:41:37;;;;;;;22.42;19.15;;;;;;;19.63;91.61;101407.00;6181332;28;20667;-67
2023/09/11 03:45:00;;;;;;;20.02;17.58;;;;;;;19.50;91.73;101398.56;6189122;28;20238;-67
2023/09/11 03:48:20;;;;;;;20.50;16.95;;;;;;;19.57;91.71;101388.56;6198236;28;20241;-67
2023/09/11 03:51:41;;;;;;;20.55;17.45;;;;;;;19.54;91.58;101391.69;6180462;28;20667;-67
2023/09/11 03:55:02;;;;;;;20.88;18.80;;;;;;;19.48;91.40;101385.06;6181795;28;20512;-67
2023/09/11 03:58:23;;;;;;;21.65;19.50;;;;;;;19.63;91.89;101385.13;6185324;28;20512;-67
2023/09/11 04:01:46;;;;;;;24.27;21.67;;;;;;;19.61;91.35;101390.75;6182563;28;20237;-67
2023/09/11 04:05:07;;;;;;;22.90;20.50;;;;;;;19.75;91.02;101392.72;6193767;28;20238;-67
2023/09/11 04:08:29;;;;;;;22.23;19.92;;;;;;;19.55;91.12;101380.56;6181164;28;20226;-66
2023/09/11 04:11:50;;;;;;;22.25;17.92;;;;;;;19.46;91.58;101381.63;6196992;28;20233;-66
2023/09/11 04:15:10;;;;;;;19.88;17.77;;;;;;;19.26;92.08;101383.09;6185629;28;20249;-66
2023/09/11 04:18:33;;;;;;;19.98;17.30;;;;;;;19.32;92.58;101367.84;6194769;28;20222;-67
2023/09/11 04:21:54;;;;;;;21.17;18.02;;;;;;;19.27;92.72;101368.41;6183969;28;20234;-67
2023/09/11 04:25:14;;;;;;;23.98;18.63;;;;;;;19.31;92.91;101368.91;6183434;28;20257;-67
2023/09/11 04:28:36;;;;;;;20.13;18.02;;;;;;;19.45;92.08;101365.41;6181279;28;20325;-68
2023/09/11 04:31:57;;;;;;;30.58;23.25;;;;;;;19.32;92.30;101365.13;6181724;28;20225;-67
2023/09/11 04:35:20;;;;;;;20.27;18.20;;;;;;;19.23;92.08;101371.69;6177417;28;20508;-67
2023/09/11 04:38:41;;;;;;;21.27;19.20;;;;;;;18.97;92.46;101371.97;6195149;28;20241;-67
2023/09/11 04:42:02;;;;;;;18.70;16.70;;;;;;;19.04;93.22;101383.91;6180532;28;20238;-68
2023/09/11 04:45:23;;;;;;;21.48;19.38;;;;;;;19.04;93.15;101382.03;6182277;28;20233;-67
2023/09/11 04:48:44;;;;;;;25.02;21.38;;;;;;;19.12;92.69;101376.53;6182408;28;20230;-67
2023/09/11 04:52:06;;;;;;;32.15;28.73;;;;;;;19.08;92.22;101372.47;6180779;28;20241;-67
2023/09/11 04:55:27;;;;;;;22.27;19.73;;;;;;;19.24;91.76;101367.91;6176552;28;20229;-67
2023/09/11 04:58:49;;;;;;;20.23;18.00;;;;;;;19.21;91.72;101379.22;6180968;28;20233;-67
2023/09/11 05:02:10;;;;;;;21.23;16.90;;;;;;;19.12;91.93;101381.13;6163869;28;20324;-67
2023/09/11 05:05:38;;;;;;;23.65;18.67;;;;;;;19.08;92.16;101377.94;6172392;28;20230;-67
2023/09/11 05:09:00;;;;;;;18.98;16.67;;;;;;;19.05;91.73;101382.88;6174062;28;20233;-68
2023/09/11 05:12:22;;;;;;;21.73;18.55;;;;;;;19.09;91.82;101385.06;6176752;28;20253;-67
2023/09/11 05:15:44;;;;;;;22.20;19.88;;;;;;;19.17;91.11;101386.06;6196684;28;20233;-68
2023/09/11 05:19:05;;;;;;;38.83;34.92;;;;;;;19.05;91.36;101378.25;6175588;28;20234;-68
2023/09/11 05:22:26;;;;;;;27.17;24.17;;;;;;;19.17;91.26;101368.63;6175178;28;20234;-67
2023/09/11 05:25:48;;;;;;;20.17;18.08;;;;;;;19.33;90.65;101367.69;6178461;28;20234;-68
2023/09/11 05:29:09;;;;;;;17.63;15.73;;;;;;;19.19;90.29;101378.53;6174878;28;20254;-67
2023/09/11 05:32:32;;;;;;;17.80;16.20;;;;;;;19.24;90.24;101374.22;6169743;28;20234;-68
2023/09/11 05:35:53;;;;;;;19.65;15.80;;;;;;;19.39;89.72;101375.19;6179162;28;20772;-67
2023/09/11 05:39:14;;;;;;;18.45;16.65;;;;;;;19.48;88.90;101376.84;6177630;28;20241;-68
2023/09/11 05:42:36;;;;;;;19.10;17.10;;;;;;;19.32;88.54;101373.31;6176369;28;20264;-68
2023/09/11 05:45:58;;;;;;;19.50;17.35;;;;;;;19.36;88.56;101372.81;6177030;28;21086;-68
2023/09/11 05:49:21;;;;;;;22.80;16.77;;;;;;;19.37;88.71;101371.78;6172987;28;20237;-67
2023/09/11 05:52:41;;;;;;;17.35;15.57;;;;;;;19.29;88.45;101374.56;6178390;28;20254;-67
2023/09/11 05:56:02;;;;;;;17.20;14.65;;;;;;;19.45;88.36;101374.47;6178111;28;20575;-67
2023/09/11 05:59:25;;;;;;;51.38;46.05;;;;;;;19.48;88.18;101378.72;6178212;28;20234;-67
2023/09/11 06:02:46;;;;;;;28.67;23.75;;;;;;;19.59;87.63;101375.56;6177434;28;20582;-67
2023/09/11 06:06:07;;;;;;;19.35;17.45;;;;;;;19.67;87.72;101370.06;6179476;28;20229;-67
2023/09/11 06:09:28;;;;;;;16.85;14.60;;;;;;;19.59;87.83;101372.81;6178227;28;20233;-67
2023/09/11 06:12:48;;;;;;;18.48;15.70;;;;;;;19.82;87.42;101370.94;6175830;28;20237;-67
2023/09/11 06:16:12;;;;;;;19.30;17.08;;;;;;;19.80;87.14;101373.84;6172095;28;20221;-67
2023/09/11 06:19:32;;;;;;;15.88;14.27;;;;;;;19.71;87.48;101363.16;6170459;28;20254;-67
2023/09/11 06:22:54;;;;;;;16.30;14.70;;;;;;;19.71;87.02;101368.66;6176576;28;20230;-66
2023/09/11 06:26:15;;;;;;;15.18;13.43;;;;;;;19.88;86.75;101361.97;6181452;28;20341;-68
2023/09/11 06:29:36;;;;;;;16.83;14.63;;;;;;;20.24;85.78;101359.44;6175988;28;20234;-66
2023/09/11 06:32:59;;;;;;;15.93;14.23;;;;;;;20.21;84.79;101363.44;6166558;28;20233;-67
2023/09/11 06:36:20;;;;;;;19.77;17.77;;;;;;;20.22;84.65;101359.63;6180059;28;20257;-67
2023/09/11 06:39:41;;;;;;;15.77;13.38;;;;;;;20.43;84.78;101350.69;6178954;28;20225;-68
2023/09/11 06:43:02;;;;;;;17.95;14.63;;;;;;;20.14;84.38;101361.56;6177774;28;20233;-68
2023/09/11 06:46:23;;;;;;;14.02;12.63;;;;;;;20.42;84.39;101359.94;6176229;28;20238;-67
2023/09/11 06:49:45;;;;;;;15.43;13.88;;;;;;;20.41;83.95;101358.22;6173596;28;20249;-67
2023/09/11 06:53:07;;;;;;;16.67;15.07;;;;;;;20.22;84.66;101350.56;6169067;28;20229;-67
2023/09/11 06:56:28;;;;;;;15.68;13.57;;;;;;;19.76;86.17;101356.09;6168505;28;20614;-67
2023/09/11 06:59:49;;;;;;;14.10;12.68;;;;;;;19.86;86.07;101350.38;6166353;28;20230;-67
2023/09/11 07:03:10;;;;;;;13.55;12.15;;;;;;;20.58;84.97;101343.31;6174402;28;20237;-67
2023/09/11 07:06:32;;;;;;;15.50;13.90;;;;;;;20.67;83.96;101348.50;6173471;28;20558;-67
2023/09/11 07:09:54;;;;;;;14.20;12.63;;;;;;;20.92;82.54;101348.19;6171524;28;20233;-68
2023/09/11 07:13:14;;;;;;;18.08;15.43;;;;;;;20.04;84.67;101342.69;6176557;28;20226;-67
2023/09/11 07:16:35;;;;;;;16.33;12.82;;;;;;;20.24;85.88;101345.75;6171971;28;20245;-67
2023/09/11 07:19:56;;;;;;;16.35;13.57;;;;;;;19.84;86.82;101349.69;6173222;28;20230;-69
2023/09/11 07:23:19;;;;;;;18.05;13.45;;;;;;;19.97;86.62;101347.19;6178356;28;20414;-68
2023/09/11 07:26:40;;;;;;;16.35;13.68;;;;;;;20.25;85.80;101342.84;6180687;28;20237;-69
2023/09/11 07:30:01;;;;;;;15.07;12.70;;;;;;;20.58;85.17;101344.19;6176119;28;20229;-68
2023/09/11 07:33:22;;;;;;;16.88;15.07;;;;;;;20.83;83.78;101349.34;6181437;28;20237;-70
2023/09/11 07:36:43;;;;;;;11.32;10.18;;;;;;;21.37;81.99;101342.44;6183213;28;20257;-70
2023/09/11 07:40:07;;;;;;;29.02;15.48;;;;;;;21.62;80.38;101342.88;6179696;28;20245;-70
2023/09/11 07:43:28;;;;;;;12.98;11.65;;;;;;;21.55;79.74;101340.06;6179091;28;20233;-70
2023/09/11 07:46:49;;;;;;;14.65;12.77;;;;;;;21.51;79.50;101343.44;6177879;28;20241;-69
2023/09/11 07:50:10;;;;;;;15.23;11.35;;;;;;;21.94;78.93;101345.97;6175432;28;20592;-71
2023/09/11 07:53:31;;;;;;;14.07;12.48;;;;;;;21.85;78.52;101327.94;6173551;28;20241;-71
2023/09/11 07:56:53;;;;;;;15.52;13.93;;;;;;;21.59;79.19;101324.09;6179761;28;20237;-71
2023/09/11 08:00:15;;;;;;;13.68;12.13;;;;;;;21.74;79.66;101322.94;6179881;28;20230;-71
2023/09/11 08:03:36;;;;;;;13.90;12.27;;;;;;;22.07;79.33;101326.84;6175245;28;20340;-70
2023/09/11 08:06:57;;;;;;;13.43;12.20;;;;;;;22.30;77.94;101326.56;6180158;28;20245;-70
2023/09/11 08:10:18;;;;;;;13.57;12.27;;;;;;;22.30;77.01;101320.25;6175620;28;20229;-70
2023/09/11 08:13:40;;;;;;;11.43;10.30;;;;;;;22.58;77.51;101316.44;6180195;28;20222;-70
2023/09/11 08:17:01;;;;;;;10.93;9.90;;;;;;;23.01;75.82;101311.53;6180033;28;20230;-69
2023/09/11 08:20:22;;;;;;;11.23;10.13;;;;;;;23.27;74.89;101313.50;6180741;28;20245;-69
2023/09/11 08:23:44;;;;;;;11.93;10.82;;;;;;;23.22;74.07;101308.63;6182535;28;20233;-69
2023/09/11 08:27:05;;;;;;;10.30;9.35;;;;;;;23.56;73.13;101308.53;6181063;28;20332;-70
2023/09/11 08:30:27;;;;;;;11.30;10.30;;;;;;;23.33;73.00;101313.56;6175864;28;20238;-70
2023/09/11 08:33:50;;;;;;;11.95;10.50;;;;;;;23.59;73.32;101312.75;6178572;28;21940;-70
2023/09/11 08:37:11;;;;;;;12.10;11.00;;;;;;;23.61;72.57;101316.16;6181519;28;20225;-70
2023/09/11 08:40:32;;;;;;;11.85;9.27;;;;;;;23.81;72.64;101312.34;6176442;28;20316;-70
2023/09/11 08:43:53;;;;;;;15.02;11.13;;;;;;;23.48;73.22;101314.22;6173159;28;20237;-70
2023/09/11 08:47:17;;;;;;;12.50;11.20;;;;;;;23.79;71.80;101306.22;6177709;28;20241;-71
2023/09/11 08:50:44;;;;;;;9.95;8.75;;;;;;;23.87;71.48;101302.38;6179172;28;20580;-70
2023/09/11 08:54:09;;;;;;;9.50;8.60;;;;;;;23.75;71.49;101304.94;6183200;28;20238;-70
2023/09/11 08:57:33;;;;;;;10.13;9.15;;;;;;;23.81;71.31;101301.34;6170286;28;20238;-70
2023/09/11 09:00:54;;;;;;;7.88;7.18;;;;;;;24.25;71.04;101289.66;6174170;28;20233;-70
2023/09/11 09:04:17;;;;;;;8.88;8.00;;;;;;;24.33;69.90;101283.06;6176588;28;20547;-70
2023/09/11 09:07:38;;;;;;;9.55;8.65;;;;;;;24.31;70.80;101279.66;6178612;28;20229;-66
2023/09/11 09:10:59;;;;;;;9.30;8.10;;;;;;;24.59;70.50;101277.47;6168538;28;20225;-66
2023/09/11 09:14:20;;;;;;;10.25;8.73;;;;;;;24.86;69.63;101279.09;6181111;28;20238;-66
2023/09/11 09:17:41;;;;;;;10.15;8.93;;;;;;;24.53;69.02;101278.34;6184147;28;20222;-65
2023/09/11 09:21:05;;;;;;;10.45;8.73;;;;;;;24.69;68.99;101277.84;6174920;28;20241;-65
2023/09/11 09:24:26;;;;;;;9.48;8.40;;;;;;;24.54;69.86;101266.25;6178656;28;20265;-66
2023/09/11 09:27:47;;;;;;;9.88;8.85;;;;;;;24.61;68.77;101270.66;6177833;28;20242;-65
2023/09/11 09:31:11;;;;;;;10.35;8.68;;;;;;;25.17;67.60;101267.22;6184624;28;20234;-65
2023/09/11 09:34:33;;;;;;;10.25;7.88;;;;;;;25.04;66.61;101273.69;6183798;28;20347;-65
2023/09/11 09:37:57;;;;;;;9.80;8.50;;;;;;;25.03;67.41;101257.34;6180104;28;20612;-65
2023/09/11 09:41:20;;;;;;;8.35;7.45;;;;;;;25.09;66.86;101257.31;6181447;28;20256;-65
2023/09/11 09:44:43;;;;;;;7.47;6.72;;;;;;;25.30;66.22;101254.19;6173772;28;21873;-66
2023/09/11 09:48:09;;;;;;;7.78;6.97;;;;;;;25.78;65.34;101254.50;6177077;28;20555;-66
2023/09/11 09:51:30;;;;;;;10.73;7.80;;;;;;;25.70;64.67;101262.22;6172298;28;20233;-66
2023/09/11 09:54:58;;;;;;;8.77;6.80;;;;;;;26.24;63.69;101250.44;6182591;28;20238;-66
2023/09/11 09:58:20;;;;;;;6.45;5.82;;;;;;;25.74;62.65;101250.47;6185258;28;21044;-66
2023/09/11 10:01:45;;;;;;;6.32;5.40;;;;;;;26.04;63.08;101242.31;6187346;28;20535;-65
2023/09/11 10:05:08;;;;;;;7.55;6.82;;;;;;;25.99;62.47;101239.41;6186785;28;20590;-65
2023/09/11 10:08:29;;;;;;;7.28;6.18;;;;;;;26.02;63.52;101249.97;6185645;28;20265;-65
2023/09/11 10:11:52;;;;;;;7.28;6.65;;;;;;;26.33;62.01;101247.13;6181036;28;20737;-65
2023/09/11 10:15:13;;;;;;;7.03;6.32;;;;;;;27.23;60.94;101246.16;6181269;28;20505;-65
2023/09/11 10:18:35;;;;;;;8.57;7.45;;;;;;;26.95;60.71;101243.19;6185316;28;20254;-66
2023/09/11 10:21:56;;;;;;;8.10;6.05;;;;;;;27.72;59.45;101227.50;6183882;28;20619;-66
2023/09/11 10:25:18;;;;;;;8.30;6.40;;;;;;;28.31;58.89;101221.69;6179969;28;20241;-66
2023/09/11 10:28:45;;;;;;;9.27;7.07;;;;;;;28.69;57.47;101223.94;6176528;28;20262;-66
2023/09/11 10:32:10;;;;;;;7.55;5.45;;;;;;;29.10;56.63;101212.53;6183494;28;20252;-66
2023/09/11 10:35:35;;;;;;;5.80;5.25;;;;;;;28.94;56.62;101214.16;6178520;28;20242;-66
2023/09/11 10:38:59;;;;;;;7.28;5.72;;;;;;;29.94;54.90;101211.50;6180780;28;20265;-66
2023/09/11 10:42:20;;;;;;;8.52;5.90;;;;;;;30.11;53.92;101206.75;6182126;28;20233;-66
2023/09/11 10:45:42;;;;;;;7.05;6.35;;;;;;;28.92;56.29;101207.19;6180227;28;20241;-67
2023/09/11 10:49:14;;;;;;;6.68;5.97;;;;;;;28.92;55.21;101194.16;6183748;28;20229;-66
2023/09/11 10:52:36;;;;;;;6.80;5.18;;;;;;;29.62;53.32;101200.13;6183317;28;20229;-66
2023/09/11 10:55:58;;;;;;;7.40;5.03;;;;;;;31.19;51.17;101194.72;6181224;28;20315;-67
2023/09/11 10:59:22;;;;;;;9.48;5.90;;;;;;;31.76;50.25;101181.88;6181458;28;20914;-66
2023/09/11 11:02:44;;;;;;;5.68;5.00;;;;;;;34.51;44.68;101187.41;6184507;28;20241;-66
2023/09/11 11:06:12;;;;;;;7.05;5.22;;;;;;;37.50;39.07;101182.91;6181617;28;20249;-66
2023/09/11 11:09:35;;;;;;;5.60;4.95;;;;;;;39.34;36.09;101188.13;6177126;28;20225;-65
2023/09/11 11:13:05;;;;;;;8.68;5.65;;;;;;;40.49;33.98;101182.16;6181285;28;20262;-66
2023/09/11 11:16:26;;;;;;;6.35;4.70;;;;;;;40.59;33.36;101178.22;6187084;28;20226;-65
2023/09/11 11:19:59;;;;;;;11.95;8.15;;;;;;;41.14;32.97;101175.66;6177877;28;20377;-67
2023/09/11 11:23:20;;;;;;;8.75;5.43;;;;;;;39.31;34.68;101172.66;6178656;28;20261;-66
2023/09/11 11:26:41;;;;;;;5.45;4.95;;;;;;;39.13;35.32;101174.53;6185142;28;20230;-66
2023/09/11 11:30:02;;;;;;;8.35;4.63;;;;;;;38.34;35.79;101173.16;6180306;28;20238;-65
2023/09/11 11:33:24;;;;;;;8.00;5.47;;;;;;;40.23;34.26;101161.44;6181579;28;20237;-66
2023/09/11 11:36:48;;;;;;;7.55;4.90;;;;;;;39.96;34.04;101155.97;6181364;28;20275;-66
2023/09/11 11:40:10;;;;;;;6.72;6.05;;;;;;;39.50;35.15;101166.81;6183054;28;20241;-66
2023/09/11 11:43:32;;;;;;;6.05;4.95;;;;;;;40.55;34.33;101158.25;6184093;28;20240;-66
2023/09/11 11:46:53;;;;;;;10.25;5.70;;;;;;;40.41;34.26;101162.38;6183805;28;20733;-65
2023/09/11 11:50:14;;;;;;;8.05;6.35;;;;;;;40.84;33.17;101151.16;6175048;28;20349;-66
2023/09/11 11:53:38;;;;;;;6.60;5.22;;;;;;;40.67;34.21;101154.75;6181425;28;20226;-65
2023/09/11 11:57:01;;;;;;;5.88;5.22;;;;;;;41.91;32.95;101152.91;6184301;28;20237;-66
2023/09/11 12:00:22;;;;;;;8.98;6.35;;;;;;;39.87;35.14;101141.81;6180643;28;20233;-65
2023/09/11 12:03:48;;;;;;;9.45;7.28;;;;;;;41.34;33.91;101141.00;6179520;28;20222;-67
2023/09/11 12:07:10;;;;;;;8.52;5.85;;;;;;;41.46;33.12;101140.31;6178862;28;20663;-66
2023/09/11 12:10:33;;;;;;;6.88;6.28;;;;;;;41.23;33.24;101134.84;6185336;28;20690;-66
2023/09/11 12:13:54;;;;;;;6.53;5.97;;;;;;;40.86;34.28;101134.69;6187618;28;20232;-65
2023/09/11 12:17:15;;;;;;;10.27;9.05;;;;;;;40.38;34.55;101135.56;6185598;28;20253;-67
2023/09/11 12:20:36;;;;;;;11.23;7.20;;;;;;;38.99;36.33;101131.38;6179883;28;20226;-67
2023/09/11 12:23:57;;;;;;;7.75;5.85;;;;;;;40.01;35.80;101126.78;6181482;28;20233;-66
2023/09/11 12:27:19;;;;;;;9.02;6.93;;;;;;;38.43;37.24;101136.63;6185102;28;20250;-66
2023/09/11 12:30:42;;;;;;;7.05;6.05;;;;;;;38.60;37.77;101142.44;6181082;28;20450;-67
2023/09/11 12:34:03;;;;;;;7.70;6.13;;;;;;;40.49;35.22;101121.97;6185889;28;20229;-66
2023/09/11 12:37:24;;;;;;;8.38;6.65;;;;;;;41.81;33.58;101134.25;6188157;28;22893;-66
2023/09/11 12:40:48;;;;;;;7.95;6.32;;;;;;;41.34;33.39;101136.19;6184944;28;20229;-66
2023/09/11 12:44:11;;;;;;;7.15;6.45;;;;;;;38.47;36.62;101140.47;6182334;28;20607;-66
2023/09/11 12:47:32;;;;;;;7.25;6.30;;;;;;;39.43;35.75;101132.59;6184593;28;20330;-66
2023/09/11 12:50:53;;;;;;;6.70;5.18;;;;;;;40.99;33.77;101128.88;6182073;28;20234;-67
2023/09/11 12:54:14;;;;;;;7.00;5.82;;;;;;;40.54;34.84;101128.28;6186160;28;20607;-67
2023/09/11 12:57:35;;;;;;;6.70;6.03;;;;;;;41.61;33.49;101125.63;6184931;28;20233;-66
2023/09/11 13:00:57;;;;;;;7.68;6.15;;;;;;;42.37;32.61;101118.84;6183019;28;22329;-66
2023/09/11 13:04:20;;;;;;;9.10;6.13;;;;;;;39.51;35.58;101121.34;6181582;28;20245;-67
2023/09/11 13:07:41;;;;;;;12.95;6.70;;;;;;;41.03;33.87;101114.88;6178450;28;20229;-66
2023/09/11 13:11:03;;;;;;;7.57;5.68;;;;;;;39.79;34.93;101110.69;6168050;28;20312;-66
2023/09/11 13:14:24;;;;;;;7.60;6.13;;;;;;;39.72;34.94;101110.34;6187461;28;20238;-65
2023/09/11 13:17:46;;;;;;;6.80;5.85;;;;;;;41.05;34.75;101109.69;6186564;28;20504;-66
2023/09/11 13:21:07;;;;;;;7.10;5.43;;;;;;;41.97;32.83;101100.50;6181882;28;20769;-66
2023/09/11 13:24:29;;;;;;;8.45;6.90;;;;;;;40.79;34.01;101111.66;6184047;28;20239;-67
2023/09/11 13:27:50;;;;;;;7.25;5.78;;;;;;;40.51;34.12;101102.69;6185141;28;20242;-66
2023/09/11 13:31:11;;;;;;;8.25;6.53;;;;;;;40.83;34.64;101099.38;6186211;28;20234;-66
2023/09/11 13:34:34;;;;;;;9.02;5.78;;;;;;;40.81;33.36;101092.38;6171992;28;20229;-66
2023/09/11 13:37:55;;;;;;;7.88;5.32;;;;;;;40.34;34.29;101080.81;6173321;28;20265;-67
2023/09/11 13:41:16;;;;;;;15.27;8.88;;;;;;;41.09;33.48;101079.56;6178906;28;20515;-66
2023/09/11 13:44:37;;;;;;;9.43;6.22;;;;;;;39.05;34.97;101086.97;6170664;28;20429;-66
2023/09/11 13:47:58;;;;;;;10.82;6.28;;;;;;;40.33;33.75;101079.16;6180861;28;21526;-66
2023/09/11 13:51:20;;;;;;;11.50;10.23;;;;;;;40.83;33.62;101073.91;6184030;28;20245;-66
2023/09/11 13:54:44;;;;;;;10.45;6.88;;;;;;;40.24;33.95;101074.66;6183888;28;20257;-67
2023/09/11 13:58:05;;;;;;;6.88;4.65;;;;;;;39.87;32.70;101067.53;6180405;28;20252;-66
2023/09/11 14:01:26;;;;;;;7.95;4.40;;;;;;;40.01;32.85;101061.78;6177557;28;20628;-66
2023/09/11 14:04:47;;;;;;;5.57;5.07;;;;;;;39.69;32.14;101065.78;6182049;28;20261;-67
2023/09/11 14:08:10;;;;;;;5.13;4.72;;;;;;;38.92;33.16;101059.63;6178209;28;20257;-66
2023/09/11 14:11:30;;;;;;;7.00;4.20;;;;;;;38.59;33.73;101056.19;6182226;28;20618;-66
2023/09/11 14:14:51;;;;;;;6.70;4.15;;;;;;;39.71;32.52;101053.03;6185663;28;20234;-66
2023/09/11 14:18:12;;;;;;;7.82;4.13;;;;;;;38.98;32.75;101045.09;6178732;28;20316;-66
2023/09/11 14:21:33;;;;;;;8.02;4.55;;;;;;;38.28;33.59;101050.41;6181792;28;20237;-66
2023/09/11 14:24:55;;;;;;;5.47;4.55;;;;;;;37.50;35.04;101050.63;6185721;28;20233;-65
2023/09/11 14:28:16;;;;;;;7.90;4.97;;;;;;;35.40;37.34;101041.28;6165637;28;20242;-66
2023/09/11 14:31:37;;;;;;;7.10;4.90;;;;;;;35.81;37.24;101036.91;6175024;28;20261;-66
2023/09/11 14:34:58;;;;;;;8.60;6.10;;;;;;;36.90;35.90;101037.63;6180782;28;20234;-66
2023/09/11 14:38:19;;;;;;;6.55;5.43;;;;;;;37.28;35.48;101042.00;6179552;28;20535;-66
2023/09/11 14:41:41;;;;;;;5.60;4.90;;;;;;;36.92;35.21;101028.88;6172386;28;20533;-66
2023/09/11 14:45:02;;;;;;;11.75;6.95;;;;;;;36.99;35.87;101023.72;6180413;28;20268;-66
2023/09/11 14:48:23;;;;;;;13.25;7.45;;;;;;;36.39;35.90;101026.28;6185001;28;20245;-65
2023/09/11 14:51:44;;;;;;;10.63;4.35;;;;;;;33.00;39.68;101025.44;6179230;28;20258;-66
2023/09/11 14:55:06;;;;;;;6.20;3.80;;;;;;;33.65;39.44;101028.13;6181386;28;20234;-67
2023/09/11 14:58:28;;;;;;;14.48;9.80;;;;;;;34.05;39.00;101024.34;6184081;28;20501;-66
2023/09/11 15:01:49;;;;;;;10.43;3.92;;;;;;;33.69;39.72;101008.81;6183560;28;20245;-67
2023/09/11 15:05:10;;;;;;;17.73;9.43;;;;;;;34.50;38.92;101012.91;6182654;28;20320;-66
2023/09/11 15:08:31;;;;;;;10.05;5.15;;;;;;;33.56;39.77;101007.47;6181943;28;20608;-66
2023/09/11 15:11:52;;;;;;;7.05;4.90;;;;;;;32.72;41.57;101006.41;6184272;28;20312;-66
2023/09/11 15:15:14;;;;;;;6.30;4.65;;;;;;;33.30;41.26;101011.41;6185454;28;20229;-67
2023/09/11 15:18:35;;;;;;;8.27;5.18;;;;;;;33.30;41.81;100997.44;6184627;28;20237;-66
2023/09/11 15:21:56;;;;;;;8.00;4.10;;;;;;;33.37;41.19;101003.56;6180042;28;20250;-66
2023/09/11 15:25:17;;;;;;;18.95;15.27;;;;;;;34.01;41.31;101006.44;6176524;28;20229;-66